Time;durP1;ratioP1;P1;durP2;ratioP2;P2;SDS_P1;SDS_P2;PMS_P1;PMS_P2;Temp;Humidity;BMP_temperature;BMP_pressure;BME280_temperature;BME280_humidity;BME280_pressure;Samples;Min_cycle;Max_cycle;Signal;HPM_P1;HPM_P2
2022/09/04 00:00:53;;;;;;;14.50;6.22;;;;;;;14.44;55.93;100956.97;1836076;78;21541;-62
2022/09/04 00:03:59;;;;;;;12.43;6.28;;;;;;;14.39;55.99;100953.10;1814490;78;21055;-64
2022/09/04 00:06:37;;;;;;;14.65;6.45;;;;;;;14.33;56.30;100956.16;1801800;78;20971;-64
2022/09/04 00:09:11;;;;;;;14.30;6.25;;;;;;;14.32;56.61;100959.13;1805315;78;21423;-61
2022/09/04 00:11:58;;;;;;;15.05;6.70;;;;;;;14.28;56.74;100962.27;1827530;78;21062;-61
2022/09/04 00:14:41;;;;;;;17.45;6.60;;;;;;;14.28;56.76;100960.89;1809827;78;21057;-63
2022/09/04 00:17:37;;;;;;;16.48;6.60;;;;;;;14.29;56.85;100962.59;1820437;78;21364;-63
2022/09/04 00:20:29;;;;;;;13.13;6.65;;;;;;;14.31;56.92;100966.55;1836340;78;21067;-61
2022/09/04 00:23:22;;;;;;;11.48;6.37;;;;;;;14.27;56.74;100957.81;1825828;78;20991;-60
2022/09/04 00:26:02;;;;;;;14.65;6.75;;;;;;;14.20;56.79;100961.62;1813016;78;20983;-63
2022/09/04 00:28:45;;;;;;;11.60;6.65;;;;;;;14.23;56.92;100963.95;1810527;78;20983;-62
2022/09/04 00:31:19;;;;;;;15.88;6.55;;;;;;;14.26;56.92;100967.14;1836382;78;21038;-62
2022/09/04 00:34:28;;;;;;;18.25;7.22;;;;;;;14.28;56.81;100962.27;1777099;80;21103;-62
2022/09/04 00:37:02;;;;;;;12.50;6.35;;;;;;;14.33;56.64;100960.83;1825769;78;20986;-61
2022/09/04 00:39:55;;;;;;;13.22;6.83;;;;;;;14.33;56.54;100956.70;1828815;78;21038;-61
2022/09/04 00:43:07;;;;;;;16.97;6.78;;;;;;;14.32;56.46;100961.89;1827752;78;21074;-61
2022/09/04 00:46:11;;;;;;;17.20;6.85;;;;;;;14.33;56.64;100964.97;1814272;78;20999;-61
2022/09/04 00:49:04;;;;;;;15.93;7.03;;;;;;;14.34;56.70;100966.13;1795160;78;21449;-62
2022/09/04 00:52:02;;;;;;;13.00;6.05;;;;;;;14.36;56.70;100965.40;1817669;78;21023;-61
2022/09/04 00:54:53;;;;;;;13.32;6.03;;;;;;;14.38;56.78;100965.19;1812630;78;21544;-62
2022/09/04 00:58:10;;;;;;;16.12;6.40;;;;;;;14.37;56.84;100964.34;1824302;78;21443;-63
2022/09/04 01:00:40;;;;;;;13.80;6.85;;;;;;;14.36;56.88;100965.40;1780489;80;21011;-62
2022/09/04 01:03:30;;;;;;;14.03;7.10;;;;;;;14.33;57.08;100964.97;1740296;79;21466;-60
2022/09/04 01:06:33;;;;;;;15.53;7.12;;;;;;;14.27;57.16;100967.47;1785531;80;21015;-62
2022/09/04 01:09:35;;;;;;;13.50;6.70;;;;;;;14.25;57.26;100959.94;1777699;80;21011;-62
2022/09/04 01:12:37;;;;;;;16.42;7.33;;;;;;;14.21;57.30;100957.27;1785122;80;21046;-64
2022/09/04 01:15:18;;;;;;;11.97;6.62;;;;;;;14.16;57.52;100961.18;1789171;80;21748;-61
2022/09/04 01:18:24;;;;;;;12.95;6.80;;;;;;;14.10;57.73;100962.02;1777191;80;21067;-62
2022/09/04 01:21:13;;;;;;;16.93;7.37;;;;;;;14.06;58.01;100962.63;1781096;80;21003;-61
2022/09/04 01:24:15;;;;;;;15.50;7.72;;;;;;;14.02;58.28;100962.72;1775978;80;20995;-61
2022/09/04 01:26:48;;;;;;;16.32;7.97;;;;;;;13.96;58.51;100957.52;1805769;78;21032;-61
2022/09/04 01:29:43;;;;;;;14.87;8.03;;;;;;;13.89;58.85;100969.88;1823480;78;20981;-61
2022/09/04 01:32:17;;;;;;;13.40;7.50;;;;;;;13.88;59.07;100967.33;1820924;78;21067;-61
2022/09/04 01:35:13;;;;;;;13.53;7.78;;;;;;;13.88;59.20;100966.81;1781104;79;21039;-62
2022/09/04 01:38:15;;;;;;;16.93;8.00;;;;;;;13.84;59.36;100968.80;1821905;78;21016;-62
2022/09/04 01:40:52;;;;;;;13.88;8.38;;;;;;;13.75;59.67;100964.52;1780312;80;21051;-62
2022/09/04 01:43:22;;;;;;;15.88;8.45;;;;;;;13.68;60.00;100965.02;1786041;80;21035;-62
2022/09/04 01:46:13;;;;;;;14.80;8.35;;;;;;;13.62;60.26;100963.37;1784883;80;21038;-62
2022/09/04 01:49:12;;;;;;;18.23;11.12;;;;;;;13.57;60.51;100972.77;1789900;80;21022;-62
2022/09/04 01:52:08;;;;;;;14.03;8.48;;;;;;;13.56;60.88;100965.56;1784732;80;21011;-62
2022/09/04 01:54:55;;;;;;;15.98;8.45;;;;;;;13.57;61.08;100963.66;1789547;80;21054;-60
2022/09/04 01:57:42;;;;;;;20.72;9.60;;;;;;;13.52;61.23;100965.65;1781386;80;21040;-62
2022/09/04 02:00:17;;;;;;;14.55;9.00;;;;;;;13.45;61.64;100962.53;1789888;80;21047;-62
2022/09/04 02:03:11;;;;;;;17.87;8.88;;;;;;;13.47;61.83;100965.94;1792792;78;21178;-62
2022/09/04 02:06:11;;;;;;;17.55;8.85;;;;;;;13.44;61.98;100960.83;1820617;78;21109;-61
2022/09/04 02:08:49;;;;;;;15.83;8.73;;;;;;;13.39;62.14;100964.19;1814923;78;20983;-62
2022/09/04 02:11:21;;;;;;;15.38;8.75;;;;;;;13.33;62.39;100961.72;1813977;78;20974;-61
2022/09/04 02:14:18;;;;;;;16.70;9.48;;;;;;;13.32;62.60;100966.05;1792883;78;21006;-62
2022/09/04 02:17:17;;;;;;;15.65;8.75;;;;;;;13.30;62.79;100965.41;1795374;78;21018;-60
2022/09/04 02:20:09;;;;;;;14.83;8.28;;;;;;;13.27;62.91;100963.06;1833213;78;21018;-61
2022/09/04 02:23:10;;;;;;;17.90;8.95;;;;;;;13.22;63.10;100958.69;1796045;78;21050;-60
2022/09/04 02:26:09;;;;;;;17.45;8.78;;;;;;;13.14;63.30;100961.03;1776851;78;21003;-61
2022/09/04 02:29:04;;;;;;;16.15;8.55;;;;;;;13.13;63.51;100963.98;1824228;78;21050;-62
2022/09/04 02:32:17;;;;;;;17.67;8.40;;;;;;;13.12;63.61;100954.03;1811256;78;20999;-62
2022/09/04 02:35:10;;;;;;;17.55;8.80;;;;;;;13.10;63.76;100961.64;1807671;78;21014;-62
2022/09/04 02:38:03;;;;;;;17.12;8.43;;;;;;;13.10;63.86;100961.64;1801224;78;20948;-62
2022/09/04 02:40:50;;;;;;;16.45;8.00;;;;;;;13.10;63.82;100960.27;1807377;78;21004;-62
2022/09/04 02:43:39;;;;;;;15.65;8.53;;;;;;;13.08;63.83;100963.73;1801830;78;21061;-61
2022/09/04 02:46:50;;;;;;;20.10;8.80;;;;;;;13.04;63.84;100961.91;1794984;78;21042;-61
2022/09/04 02:49:38;;;;;;;16.90;8.30;;;;;;;12.99;63.95;100963.00;1801742;78;21058;-62
2022/09/04 02:52:18;;;;;;;15.88;8.25;;;;;;;12.95;64.01;100965.30;1800799;78;21027;-62
2022/09/04 02:55:14;;;;;;;15.20;8.38;;;;;;;12.88;64.10;100971.27;1814123;78;20990;-63
2022/09/04 02:58:30;;;;;;;18.95;8.78;;;;;;;12.83;64.22;100967.42;1795312;78;21475;-61
2022/09/04 03:01:08;;;;;;;17.85;7.95;;;;;;;12.84;64.29;100976.00;1811301;78;21035;-63
2022/09/04 03:03:46;;;;;;;16.17;8.33;;;;;;;12.87;64.18;100979.20;1802540;77;20999;-61
2022/09/04 03:06:21;;;;;;;14.15;7.87;;;;;;;12.88;64.23;100978.16;1801213;78;21086;-62
2022/09/04 03:08:59;;;;;;;16.77;8.13;;;;;;;12.83;64.18;100982.02;1810890;78;21082;-61
2022/09/04 03:11:40;;;;;;;16.95;7.80;;;;;;;12.79;64.28;100983.47;1792480;78;20971;-61
2022/09/04 03:14:51;;;;;;;14.70;7.42;;;;;;;12.78;64.38;100979.55;1821436;78;21038;-62
2022/09/04 03:17:39;;;;;;;14.87;8.25;;;;;;;12.80;64.34;100985.70;1782169;80;21015;-61
2022/09/04 03:20:27;;;;;;;15.50;7.87;;;;;;;12.72;64.39;100975.69;1807858;78;21002;-63
2022/09/04 03:23:20;;;;;;;14.15;7.90;;;;;;;12.63;64.60;100974.12;1834219;78;21473;-64
2022/09/04 03:25:54;;;;;;;16.48;7.60;;;;;;;12.59;64.78;100978.31;1807494;78;21033;-61
2022/09/04 03:28:35;;;;;;;14.78;7.62;;;;;;;12.52;65.02;100974.12;1819742;78;20971;-62
2022/09/04 03:31:28;;;;;;;14.80;7.50;;;;;;;12.53;65.18;100974.98;1823727;78;21017;-61
2022/09/04 03:34:22;;;;;;;13.62;8.00;;;;;;;12.56;65.29;100983.68;1796207;78;21007;-62
2022/09/04 03:37:18;;;;;;;13.35;7.35;;;;;;;12.57;65.35;100980.41;1804287;78;21025;-61
2022/09/04 03:39:53;;;;;;;15.10;7.75;;;;;;;12.59;65.41;100987.41;1730988;78;21046;-61
2022/09/04 03:42:34;;;;;;;14.73;7.70;;;;;;;12.59;65.41;100989.31;1798405;78;21002;-61
2022/09/04 03:45:27;;;;;;;15.40;7.20;;;;;;;12.55;65.45;100990.75;1822897;78;21038;-62
2022/09/04 03:48:18;;;;;;;14.83;7.90;;;;;;;12.54;65.44;100990.42;1785700;78;21042;-64
2022/09/04 03:51:24;;;;;;;14.73;6.87;;;;;;;12.51;65.42;100989.44;1782951;78;21058;-62
2022/09/04 03:54:24;;;;;;;14.60;7.33;;;;;;;12.50;65.48;100991.86;1735732;81;21063;-61
2022/09/04 03:57:20;;;;;;;16.70;7.12;;;;;;;12.50;65.51;100995.46;1798544;78;21049;-62
2022/09/04 04:00:00;;;;;;;13.53;7.05;;;;;;;12.49;65.45;100997.88;1753101;78;21509;-61
2022/09/04 04:03:11;;;;;;;16.60;6.90;;;;;;;12.49;65.43;100994.28;1786696;78;21396;-62
2022/09/04 04:06:26;;;;;;;14.45;7.28;;;;;;;12.45;65.56;100995.72;1795158;78;21062;-61
2022/09/04 04:09:04;;;;;;;15.45;6.65;;;;;;;12.50;65.55;100997.36;1812564;78;21477;-61
2022/09/04 04:11:43;;;;;;;;;;;;;;;12.54;65.43;100993.17;1800519;78;21011;-60
2022/09/04 04:14:24;;;;;;;15.30;7.00;;;;;;;12.57;65.33;100994.16;1779343;80;20151;-63
2022/09/04 04:17:14;;;;;;;17.12;7.92;;;;;;;12.59;65.27;100999.78;1799434;78;21081;-61
2022/09/04 04:20:17;;;;;;;14.50;7.70;;;;;;;12.62;65.21;100999.91;1797082;78;21066;-62
2022/09/04 04:23:31;;;;;;;15.05;7.62;;;;;;;12.67;65.12;101007.89;1798969;78;21069;-66
2022/09/04 04:26:22;;;;;;;14.38;7.03;;;;;;;12.76;64.97;101009.14;1781155;78;21054;-61
2022/09/04 04:29:08;;;;;;;13.25;6.92;;;;;;;12.84;64.70;101009.00;1801092;78;20986;-61
2022/09/04 04:32:09;;;;;;;13.35;5.95;;;;;;;12.91;64.49;101009.91;1822023;78;21015;-61
2022/09/04 04:34:32;;;;;;;11.93;6.00;;;;;;;12.96;64.35;101016.52;1791838;78;21051;-61
2022/09/04 04:37:24;;;;;;;14.13;6.50;;;;;;;13.01;64.13;101019.56;1812365;78;21058;-61
2022/09/04 04:40:34;;;;;;;14.93;6.47;;;;;;;13.07;63.65;101013.78;1794603;80;21462;-62
2022/09/04 04:43:18;;;;;;;11.20;5.97;;;;;;;13.15;63.30;101026.02;1792692;80;21093;-63
2022/09/04 04:45:55;;;;;;;9.83;5.78;;;;;;;13.24;63.12;101024.00;1793941;78;21498;-63
2022/09/04 04:48:42;;;;;;;12.05;5.72;;;;;;;13.30;62.48;101026.81;1796175;78;21049;-62
2022/09/04 04:51:39;;;;;;;10.08;5.08;;;;;;;13.36;61.95;101028.44;1783197;78;21003;-65
2022/09/04 04:54:32;;;;;;;12.15;5.40;;;;;;;13.41;61.68;101025.41;1794131;78;21482;-63
2022/09/04 04:57:19;;;;;;;15.58;5.60;;;;;;;13.48;61.24;101030.42;1748395;80;21098;-61
2022/09/04 05:00:10;;;;;;;11.20;5.40;;;;;;;13.54;60.83;101024.11;1826682;78;21057;-62
2022/09/04 05:03:09;;;;;;;8.38;4.58;;;;;;;13.59;60.21;101031.24;1828298;78;21079;-63
2022/09/04 05:06:05;;;;;;;8.95;4.50;;;;;;;13.67;59.82;101034.92;1815498;78;21011;-62
2022/09/04 05:08:51;;;;;;;9.03;5.35;;;;;;;13.74;59.27;101033.05;1834428;78;21023;-62
2022/09/04 05:11:51;;;;;;;7.97;4.40;;;;;;;13.79;58.78;101037.42;1835612;78;21443;-67
2022/09/04 05:14:54;;;;;;;6.80;3.62;;;;;;;13.81;58.71;101035.31;1828855;78;21023;-61
2022/09/04 05:17:39;;;;;;;6.95;3.85;;;;;;;13.86;57.88;101036.94;1813923;78;21030;-62
2022/09/04 05:20:27;;;;;;;6.80;3.67;;;;;;;13.94;57.35;101043.13;1832790;78;21003;-63
2022/09/04 05:23:07;;;;;;;8.30;3.20;;;;;;;14.00;56.60;101046.97;1817550;78;21003;-64
2022/09/04 05:25:55;;;;;;;7.72;3.95;;;;;;;14.07;56.32;101052.52;1821619;78;21047;-61
2022/09/04 05:28:48;;;;;;;9.13;4.00;;;;;;;14.12;56.09;101052.22;1806404;78;21025;-61
2022/09/04 05:31:38;;;;;;;7.80;3.80;;;;;;;14.16;55.96;101046.62;1814839;78;20976;-62
2022/09/04 05:34:22;;;;;;;8.45;3.45;;;;;;;14.19;55.66;101042.08;1833302;78;21443;-61
2022/09/04 05:37:14;;;;;;;5.90;3.35;;;;;;;14.23;55.63;101043.89;1811442;78;21007;-62
2022/09/04 05:40:16;;;;;;;13.25;5.60;;;;;;;14.25;55.27;101050.90;1815672;78;20984;-61
2022/09/04 05:43:12;;;;;;;6.33;3.50;;;;;;;14.29;55.11;101050.80;1814792;78;21047;-62
2022/09/04 05:46:12;;;;;;;7.10;3.05;;;;;;;14.34;54.70;101050.22;1836882;78;21011;-63
2022/09/04 05:49:22;;;;;;;6.47;3.30;;;;;;;14.39;54.15;101057.34;1818777;78;20995;-62
2022/09/04 05:52:02;;;;;;;8.00;3.62;;;;;;;14.42;54.26;101059.72;1816894;78;21474;-62
2022/09/04 05:55:03;;;;;;;7.00;3.17;;;;;;;14.47;53.98;101065.47;1800030;78;21081;-61
2022/09/04 05:57:59;;;;;;;5.60;3.08;;;;;;;14.51;54.03;101068.66;1824385;77;21059;-62
2022/09/04 06:00:40;;;;;;;9.05;3.02;;;;;;;14.53;53.47;101065.16;1835249;78;21074;-63
2022/09/04 06:03:46;;;;;;;4.90;2.77;;;;;;;14.55;53.21;101073.55;1823326;77;21004;-61
2022/09/04 06:06:34;;;;;;;7.15;2.72;;;;;;;14.57;52.39;101065.07;1811540;78;21428;-63
2022/09/04 06:09:36;;;;;;;6.78;2.52;;;;;;;14.60;52.42;101070.17;1813461;78;21416;-62
2022/09/04 06:12:22;;;;;;;6.92;2.60;;;;;;;14.63;52.15;101068.38;1825724;78;21046;-63
2022/09/04 06:15:13;;;;;;;5.10;2.25;;;;;;;14.66;51.90;101071.25;1784230;80;21034;-63
2022/09/04 06:18:09;;;;;;;4.12;2.15;;;;;;;14.71;51.76;101072.85;1755555;79;21078;-61
2022/09/04 06:20:44;;;;;;;4.78;1.87;;;;;;;14.77;51.12;101078.91;1781442;78;21054;-61
2022/09/04 06:23:25;;;;;;;4.33;2.05;;;;;;;14.81;50.64;101085.19;1795888;78;21018;-61
2022/09/04 06:26:02;;;;;;;3.08;1.70;;;;;;;14.86;49.67;101079.89;1811283;79;21006;-61
2022/09/04 06:29:00;;;;;;;7.08;1.85;;;;;;;14.91;49.14;101082.87;1809231;78;21024;-62
2022/09/04 06:31:52;;;;;;;4.55;1.75;;;;;;;14.98;48.78;101077.92;1822790;78;21003;-63
2022/09/04 06:35:02;;;;;;;2.22;1.62;;;;;;;15.02;48.32;101081.96;1833444;78;21018;-61
2022/09/04 06:38:13;;;;;;;2.33;1.35;;;;;;;15.04;47.61;101083.45;1821880;78;20995;-63
2022/09/04 06:41:26;;;;;;;3.77;1.40;;;;;;;15.09;47.41;101085.58;1694140;84;21070;-64
2022/09/04 06:44:05;;;;;;;6.47;1.70;;;;;;;15.11;46.66;101086.22;1679472;85;21063;-63
2022/09/04 06:47:27;;;;;;;4.33;1.60;;;;;;;15.13;46.58;101092.38;1685353;84;20996;-62
2022/09/04 06:50:38;;;;;;;4.62;1.52;;;;;;;15.16;46.34;101094.19;1659647;84;21085;-62
2022/09/04 06:53:26;;;;;;;2.83;1.45;;;;;;;15.19;46.27;101086.02;1692031;84;21068;-66
2022/09/04 06:56:18;;;;;;;3.22;1.60;;;;;;;15.22;45.53;101091.11;1666759;85;21095;-62
2022/09/04 06:59:23;;;;;;;2.47;1.32;;;;;;;15.25;45.48;101090.69;1684359;84;21436;-63
2022/09/04 07:02:24;;;;;;;3.67;1.70;;;;;;;15.29;45.23;101097.48;1669454;84;21052;-62
2022/09/04 07:05:37;;;;;;;2.27;1.62;;;;;;;15.34;45.02;101096.84;1668524;84;21064;-62
2022/09/04 07:08:32;;;;;;;5.17;1.90;;;;;;;15.42;44.85;101094.73;1653995;86;21086;-63
2022/09/04 07:11:39;;;;;;;2.58;1.77;;;;;;;15.54;44.62;101094.41;1711993;78;21082;-63
2022/09/04 07:14:18;;;;;;;2.40;1.60;;;;;;;15.60;44.42;101084.97;1827797;78;21442;-62
2022/09/04 07:17:27;;;;;;;5.22;1.90;;;;;;;15.69;44.24;101092.01;1821706;78;21018;-64
2022/09/04 07:20:08;;;;;;;2.50;1.87;;;;;;;15.78;44.17;101087.95;1824360;78;20999;-62
2022/09/04 07:22:51;;;;;;;4.03;1.90;;;;;;;15.91;44.08;101081.02;1832334;78;21424;-63
2022/09/04 07:25:31;;;;;;;7.53;1.90;;;;;;;16.02;43.83;101098.32;1809832;78;21419;-62
2022/09/04 07:28:19;;;;;;;4.42;2.10;;;;;;;16.10;43.73;101091.17;1795595;80;21442;-63
2022/09/04 07:31:02;;;;;;;4.72;2.10;;;;;;;16.13;43.54;101086.59;1832376;78;21067;-63
2022/09/04 07:33:44;;;;;;;4.00;1.82;;;;;;;16.14;43.36;101081.37;1794919;78;21038;-62
2022/09/04 07:36:43;;;;;;;2.83;2.00;;;;;;;16.22;43.53;101086.35;1798373;78;21027;-63
2022/09/04 07:39:50;;;;;;;3.55;1.87;;;;;;;16.23;43.32;101085.28;1800664;78;21034;-63
2022/09/04 07:42:47;;;;;;;3.42;1.92;;;;;;;16.21;43.54;101090.19;1783195;80;21006;-62
2022/09/04 07:45:29;;;;;;;3.50;1.90;;;;;;;16.26;42.76;101087.64;1735281;80;21315;-62
2022/09/04 07:48:10;;;;;;;3.20;2.02;;;;;;;16.52;42.15;101091.69;1810555;78;20940;-62
2022/09/04 07:51:08;;;;;;;4.12;1.82;;;;;;;16.97;41.42;101084.79;1794370;78;20990;-62
2022/09/04 07:54:06;;;;;;;4.83;2.00;;;;;;;17.51;40.04;101074.45;1793144;80;21508;-65
2022/09/04 07:57:00;;;;;;;3.62;1.77;;;;;;;18.18;39.29;101078.83;1809711;78;21414;-63
2022/09/04 07:59:53;;;;;;;4.22;1.90;;;;;;;18.69;38.12;101068.19;1796645;78;21018;-64
2022/09/04 08:03:12;;;;;;;3.55;1.82;;;;;;;18.96;37.96;101074.78;1795063;78;21046;-65
2022/09/04 08:06:15;;;;;;;2.95;1.80;;;;;;;19.34;36.48;101075.78;1706099;83;21556;-63
2022/09/04 08:09:32;;;;;;;4.12;2.62;;;;;;;19.88;35.82;101078.83;1703228;84;21151;-64
2022/09/04 08:12:30;;;;;;;4.70;2.27;;;;;;;20.43;35.23;101082.61;1708081;84;21444;-64
2022/09/04 08:15:20;;;;;;;4.20;2.17;;;;;;;21.04;34.98;101071.31;1693768;84;21063;-61
2022/09/04 08:18:10;;;;;;;3.35;1.55;;;;;;;21.49;34.66;101075.51;1704832;83;21386;-71
2022/09/04 08:20:48;;;;;;;2.35;1.67;;;;;;;21.77;32.29;101080.69;1711450;83;21064;-69
2022/09/04 08:23:41;;;;;;;2.98;1.72;;;;;;;21.89;31.79;101087.56;1760641;80;21105;-71
2022/09/04 08:26:49;;;;;;;5.17;2.40;;;;;;;21.77;30.57;101083.48;1757565;81;21505;-74
2022/09/04 08:29:52;;;;;;;4.50;1.77;;;;;;;21.30;31.03;101092.16;1754516;82;21047;-71
2022/09/04 08:33:14;;;;;;;2.40;1.60;;;;;;;20.88;31.20;101090.23;1777211;80;21015;-69
2022/09/04 08:36:00;;;;;;;2.50;1.60;;;;;;;20.87;31.10;101092.72;1774386;80;21038;-75
2022/09/04 08:38:55;;;;;;;2.25;1.42;;;;;;;21.10;31.02;101091.20;1761286;81;21651;-73
2022/09/04 08:41:40;;;;;;;4.35;1.80;;;;;;;21.42;30.75;101080.38;1785568;80;21080;-68
2022/09/04 08:44:40;;;;;;;11.45;6.28;;;;;;;21.83;30.41;101076.88;1741846;81;21056;-70
2022/09/04 08:47:30;;;;;;;4.37;2.02;;;;;;;22.21;29.72;101076.09;1774042;80;21070;-71
2022/09/04 08:50:12;;;;;;;2.80;1.50;;;;;;;22.42;29.42;101083.63;1741422;81;21402;-71
2022/09/04 08:52:56;;;;;;;3.37;1.90;;;;;;;22.45;28.30;101081.72;1744389;81;21470;-70
2022/09/04 08:55:59;;;;;;;4.50;1.60;;;;;;;22.34;28.77;101079.90;1694682;84;21167;-73
2022/09/04 08:58:52;;;;;;;2.58;1.40;;;;;;;22.26;28.67;101081.74;1702885;84;21105;-71
2022/09/04 09:01:37;;;;;;;6.40;1.70;;;;;;;22.23;28.43;101083.66;1708697;84;21534;-70
2022/09/04 09:04:42;;;;;;;7.20;3.65;;;;;;;22.15;27.74;101085.50;1692662;82;21073;-71
2022/09/04 09:07:29;;;;;;;2.55;1.70;;;;;;;21.97;28.30;101075.96;1713985;83;21035;-72
2022/09/04 09:10:22;;;;;;;2.52;1.52;;;;;;;21.86;28.80;101072.73;1707320;84;21099;-69
2022/09/04 09:13:36;;;;;;;2.60;1.67;;;;;;;21.72;28.34;101080.61;1672294;84;21181;-70
2022/09/04 09:16:41;;;;;;;2.75;1.60;;;;;;;21.56;28.64;101079.52;1713863;84;21562;-70
2022/09/04 09:19:48;;;;;;;3.05;1.50;;;;;;;21.40;28.82;101078.94;1658815;86;21043;-71
2022/09/04 09:23:01;;;;;;;5.12;1.67;;;;;;;21.08;28.88;101069.71;1711006;83;21075;-71
2022/09/04 09:25:44;;;;;;;4.40;1.60;;;;;;;20.67;29.28;101070.84;1711674;83;21102;-73
2022/09/04 09:28:46;;;;;;;3.45;1.50;;;;;;;20.45;29.93;101072.08;1810826;77;22121;-71
2022/09/04 09:32:07;;;;;;;2.10;1.30;;;;;;;20.42;29.79;101080.92;1757641;80;21150;-74
2022/09/04 09:35:21;;;;;;;3.25;1.65;;;;;;;20.41;29.84;101072.27;1773299;80;21314;-71
2022/09/04 09:38:15;;;;;;;2.92;1.40;;;;;;;20.35;29.79;101071.83;1768549;80;21150;-71
2022/09/04 09:41:00;;;;;;;2.25;1.35;;;;;;;20.23;29.94;101065.45;1769368;80;21114;-72
2022/09/04 09:43:48;;;;;;;2.60;1.50;;;;;;;20.13;30.04;101059.63;1745784;80;21118;-71
2022/09/04 09:46:57;;;;;;;1.75;1.27;;;;;;;20.03;30.02;101060.80;1763304;80;21169;-70
2022/09/04 09:50:07;;;;;;;3.47;1.75;;;;;;;20.01;30.31;101054.63;1757808;80;21127;-70
2022/09/04 09:52:54;;;;;;;2.35;1.55;;;;;;;20.08;30.06;101058.13;1782664;79;21519;-71
2022/09/04 09:55:46;;;;;;;3.25;1.40;;;;;;;20.10;30.21;101061.51;1724556;80;21166;-70
2022/09/04 09:58:46;;;;;;;2.60;1.35;;;;;;;20.14;30.08;101060.77;1768280;80;21130;-71
2022/09/04 10:01:27;;;;;;;2.42;1.47;;;;;;;20.18;29.95;101059.22;1767406;80;21169;-69
2022/09/04 10:04:39;;;;;;;3.65;1.55;;;;;;;20.12;29.91;101066.28;1775368;80;21103;-68
2022/09/04 10:07:30;;;;;;;2.42;1.45;;;;;;;20.02;29.91;101073.86;1787642;80;21134;-66
2022/09/04 10:10:33;;;;;;;3.17;1.95;;;;;;;19.82;30.22;101067.28;1758307;80;21090;-66
2022/09/04 10:13:29;;;;;;;2.77;1.30;;;;;;;19.83;30.47;101068.13;1782105;80;21147;-66
2022/09/04 10:16:30;;;;;;;2.27;1.27;;;;;;;19.85;29.87;101066.80;1757945;80;21126;-64
2022/09/04 10:19:29;;;;;;;2.22;1.30;;;;;;;19.83;29.84;101062.02;1765132;80;21511;-67
2022/09/04 10:22:25;;;;;;;2.75;1.40;;;;;;;19.85;29.82;101058.45;1781896;80;21080;-77
2022/09/04 10:25:18;;;;;;;1.70;1.37;;;;;;;19.82;30.01;101059.48;1786500;80;21198;-71
2022/09/04 10:28:06;;;;;;;2.72;1.40;;;;;;;19.84;30.10;101053.14;1757441;80;21159;-63
2022/09/04 10:31:00;;;;;;;4.42;1.70;;;;;;;19.84;30.48;101052.59;1705052;83;21173;-61
2022/09/04 10:34:01;;;;;;;2.25;1.30;;;;;;;19.90;31.08;101060.51;1729938;82;21149;-63
2022/09/04 10:36:52;;;;;;;4.35;1.50;;;;;;;19.96;30.76;101056.75;1732165;82;21560;-62
2022/09/04 10:43:09;;;;;;;80.45;5.58;;;;;;;19.90;30.50;101058.57;1703793;82;21139;-67
2022/09/04 10:45:48;;;;;;;5.87;1.40;;;;;;;19.87;30.09;101054.89;1710405;82;21112;-71
2022/09/04 10:48:54;;;;;;;2.98;1.20;;;;;;;19.87;29.89;101064.63;1674804;85;21167;-68
2022/09/04 10:52:12;;;;;;;1.85;1.27;;;;;;;19.88;29.70;101062.69;1729215;82;21180;-70
2022/09/04 10:55:13;;;;;;;3.17;1.22;;;;;;;19.91;29.78;101067.22;1732164;81;21178;-69
2022/09/04 10:57:54;;;;;;;3.85;1.10;;;;;;;19.93;30.44;101067.82;1718165;82;21126;-70
2022/09/04 11:00:48;;;;;;;3.05;1.40;;;;;;;19.95;30.62;101060.08;1719307;82;21210;-69
2022/09/04 11:03:42;;;;;;;2.47;1.10;;;;;;;20.02;30.67;101057.71;1729169;82;21726;-71
2022/09/04 11:06:38;;;;;;;3.58;1.52;;;;;;;20.11;30.09;101054.30;1743256;82;21634;-71
2022/09/04 11:09:31;;;;;;;2.87;1.30;;;;;;;20.18;30.35;101060.61;1729758;82;21686;-69
2022/09/04 11:12:14;;;;;;;5.15;1.50;;;;;;;20.26;30.36;101060.23;1765966;80;21166;-69
2022/09/04 11:15:04;;;;;;;2.85;1.37;;;;;;;20.30;30.31;101061.98;1757099;80;21115;-69
2022/09/04 11:17:41;;;;;;;2.45;1.40;;;;;;;20.30;30.49;101055.02;1777972;80;21154;-72
2022/09/04 11:20:25;;;;;;;;;;;;;;;20.30;30.06;101049.45;1770506;80;21154;-70
2022/09/04 11:23:26;;;;;;;1.57;1.10;;;;;;;20.28;29.83;101044.69;1768928;80;20467;-70
2022/09/04 11:26:29;;;;;;;1.35;1.10;;;;;;;20.25;29.68;101043.78;1773032;79;21111;-67
2022/09/04 11:29:39;;;;;;;2.05;1.10;;;;;;;20.22;29.23;101039.55;1763610;81;21084;-70
2022/09/04 11:32:51;;;;;;;1.50;1.10;;;;;;;20.15;29.31;101036.58;1747134;80;21198;-69
2022/09/04 11:35:42;;;;;;;1.57;1.10;;;;;;;20.18;29.43;101036.12;1759312;81;21111;-72
2022/09/04 11:38:27;;;;;;;6.00;1.30;;;;;;;20.29;30.06;101046.92;1747056;80;21194;-67
2022/09/04 11:41:27;;;;;;;2.85;1.10;;;;;;;20.33;30.09;101036.44;1697252;84;21178;-70
2022/09/04 11:44:18;;;;;;;3.33;1.30;;;;;;;20.26;30.42;101036.58;1743665;81;21119;-70
2022/09/04 11:47:18;;;;;;;2.58;1.40;;;;;;;20.20;30.69;101033.94;1751338;81;21139;-68
2022/09/04 11:49:52;;;;;;;3.47;1.30;;;;;;;20.09;30.82;101037.02;1764692;81;21115;-64
2022/09/04 11:52:35;;;;;;;6.55;1.57;;;;;;;20.04;30.81;101029.10;1768381;81;21171;-67
2022/09/04 11:55:10;;;;;;;2.55;1.20;;;;;;;20.06;30.98;101042.22;1745758;81;21190;-66
2022/09/04 11:58:16;;;;;;;3.00;1.17;;;;;;;20.05;30.67;101037.75;1743760;81;21147;-67
2022/09/04 12:01:18;;;;;;;2.40;1.05;;;;;;;20.05;30.38;101035.81;1756043;81;21135;-66
2022/09/04 12:04:27;;;;;;;3.17;1.10;;;;;;;20.06;29.87;101042.22;1763531;81;21135;-65
2022/09/04 12:07:23;;;;;;;1.50;1.05;;;;;;;19.98;28.99;101046.23;1751969;81;21095;-66
2022/09/04 12:10:22;;;;;;;2.50;1.07;;;;;;;19.92;29.43;101036.92;1750801;81;21112;-66
2022/09/04 12:13:26;;;;;;;2.12;1.20;;;;;;;19.89;29.66;101038.80;1741040;81;21117;-66
2022/09/04 12:16:16;;;;;;;3.22;1.50;;;;;;;19.88;30.38;101026.52;1764051;81;21080;-66
2022/09/04 12:19:01;;;;;;;1.67;1.10;;;;;;;19.87;30.50;101018.73;1743614;81;21143;-67
2022/09/04 12:21:59;;;;;;;2.42;1.30;;;;;;;19.92;30.80;101017.45;1741669;81;21531;-66
2022/09/04 12:24:51;;;;;;;4.12;1.30;;;;;;;19.98;31.01;101013.39;1682509;83;21643;-65
2022/09/04 12:27:52;;;;;;;2.25;1.30;;;;;;;20.06;30.55;101018.03;1679691;84;21243;-66
2022/09/04 12:30:25;;;;;;;1.47;0.98;;;;;;;20.13;29.67;101017.89;1754791;81;21123;-64
2022/09/04 12:33:22;;;;;;;3.77;1.05;;;;;;;20.17;29.08;101019.97;1750232;81;21540;-66
2022/09/04 12:36:13;;;;;;;1.72;0.90;;;;;;;20.20;28.63;101015.30;1743895;81;21151;-64
2022/09/04 12:39:15;;;;;;;2.08;1.15;;;;;;;20.15;28.29;101010.98;1743463;81;21230;-67
2022/09/04 12:42:11;;;;;;;2.33;1.25;;;;;;;20.15;28.21;101010.14;1749576;81;21135;-66
2022/09/04 12:45:03;;;;;;;1.50;1.00;;;;;;;20.12;28.33;101020.37;1761522;80;21147;-64
2022/09/04 12:47:59;;;;;;;1.60;1.02;;;;;;;20.12;28.67;101017.05;1760199;80;21140;-65
2022/09/04 12:50:56;;;;;;;2.50;1.40;;;;;;;20.13;29.21;101020.67;1743637;81;21087;-62
2022/09/04 12:54:00;;;;;;;3.37;1.27;;;;;;;20.09;29.82;101020.86;1760922;79;21123;-65
2022/09/04 12:57:15;;;;;;;3.50;1.32;;;;;;;20.06;30.34;101014.40;1749927;80;21103;-66
2022/09/04 13:00:04;;;;;;;2.42;1.02;;;;;;;20.05;30.32;101022.45;1760227;80;21116;-65
2022/09/04 13:03:08;;;;;;;3.35;1.32;;;;;;;19.98;30.67;101006.44;1759086;81;21116;-65
2022/09/04 13:06:03;;;;;;;3.52;1.30;;;;;;;19.97;30.61;101006.13;1734756;81;21104;-67
2022/09/04 13:09:05;;;;;;;1.85;1.10;;;;;;;19.99;30.45;101002.02;1685453;83;21130;-66
2022/09/04 13:11:49;;;;;;;1.87;1.07;;;;;;;20.02;30.40;101004.85;1748509;81;21119;-66
2022/09/04 13:14:28;;;;;;;1.87;1.10;;;;;;;20.04;29.83;101001.28;1707740;84;21202;-63
2022/09/04 13:17:03;;;;;;;2.12;1.17;;;;;;;20.05;29.96;101009.38;1756608;79;21071;-65
2022/09/04 13:19:51;;;;;;;2.65;1.10;;;;;;;20.06;30.15;101003.27;1693150;82;21218;-64
2022/09/04 13:22:54;;;;;;;2.33;1.30;;;;;;;20.07;30.34;101006.35;1751640;81;21155;-65
2022/09/04 13:25:53;;;;;;;2.62;1.12;;;;;;;20.07;30.28;101003.02;1773485;81;21605;-65